Time;durP1;ratioP1;P1;durP2;ratioP2;P2;SDS_P1;SDS_P2;PMS_P1;PMS_P2;Temp;Humidity;BMP_temperature;BMP_pressure;BME280_temperature;BME280_humidity;BME280_pressure;Samples;Min_cycle;Max_cycle;Signal;HPM_P1;HPM_P2
2023/02/08 00:01:53;;;;;;;29.33;19.08;;;1.00;99.90;;;;;;5050878;28;20621;-72
2023/02/08 00:04:49;;;;;;;30.23;19.73;;;1.00;99.90;;;;;;5036033;28;20219;-73
2023/02/08 00:07:16;;;;;;;26.15;17.95;;;0.90;99.90;;;;;;5049823;28;20206;-74
2023/02/08 00:09:44;;;;;;;29.00;17.95;;;0.90;99.90;;;;;;5050622;28;20192;-74
2023/02/08 00:12:11;;;;;;;26.50;18.45;;;0.70;99.90;;;;;;5054368;28;20606;-73
2023/02/08 00:14:38;;;;;;;22.60;14.48;;;0.80;99.90;;;;;;5054061;28;20303;-72
2023/02/08 00:17:04;;;;;;;46.83;20.45;;;0.70;99.90;;;;;;5053781;28;20315;-74
2023/02/08 00:19:31;;;;;;;27.13;17.88;;;0.70;99.90;;;;;;5053563;28;20215;-73
2023/02/08 00:21:58;;;;;;;32.17;19.25;;;0.60;99.90;;;;;;5054245;28;20297;-73
2023/02/08 00:24:25;;;;;;;31.73;18.75;;;0.70;99.90;;;;;;5053610;28;20295;-75
2023/02/08 00:26:54;;;;;;;31.73;20.20;;;0.70;99.90;;;;;;5053118;28;20302;-72
2023/02/08 00:29:21;;;;;;;25.33;18.00;;;0.70;99.90;;;;;;5053405;28;20204;-72
2023/02/08 00:31:48;;;;;;;25.25;17.48;;;0.70;99.90;;;;;;5053068;28;20741;-72
2023/02/08 00:34:15;;;;;;;29.90;17.33;;;0.70;99.90;;;;;;5053101;28;20298;-75
2023/02/08 00:36:42;;;;;;;28.00;16.63;;;0.70;99.90;;;;;;5054087;28;20224;-72
2023/02/08 00:39:09;;;;;;;28.48;17.88;;;0.70;99.90;;;;;;5053853;28;20312;-72
2023/02/08 00:41:36;;;;;;;30.40;17.58;;;0.60;99.90;;;;;;5052439;28;20290;-75
2023/02/08 00:44:11;;;;;;;30.83;18.52;;;0.60;99.90;;;;;;5053532;28;20302;-73
2023/02/08 00:46:38;;;;;;;28.40;19.95;;;0.60;99.90;;;;;;5052846;28;20235;-74
2023/02/08 00:49:05;;;;;;;31.67;19.88;;;0.50;99.90;;;;;;5053357;28;20290;-73
2023/02/08 00:51:32;;;;;;;32.10;18.88;;;0.50;99.90;;;;;;5052320;28;20778;-73
2023/02/08 00:53:59;;;;;;;30.27;18.00;;;0.40;99.90;;;;;;5053234;28;20253;-74
2023/02/08 00:56:26;;;;;;;26.63;17.48;;;0.50;99.90;;;;;;5052574;28;20269;-74
2023/02/08 00:58:52;;;;;;;30.92;19.08;;;0.40;99.90;;;;;;5053269;28;20273;-75
2023/02/08 01:01:21;;;;;;;32.85;20.15;;;0.40;99.90;;;;;;5051951;28;20200;-73
2023/02/08 01:03:48;;;;;;;31.42;19.73;;;0.40;99.90;;;;;;5051746;28;20249;-74
2023/02/08 01:06:17;;;;;;;27.85;16.92;;;0.30;99.90;;;;;;5052420;28;20227;-74
2023/02/08 01:08:44;;;;;;;38.67;20.00;;;0.40;99.90;;;;;;5051258;28;20205;-73
2023/02/08 01:11:13;;;;;;;26.55;17.10;;;0.30;99.90;;;;;;5051452;28;20688;-72
2023/02/08 01:13:42;;;;;;;32.60;21.13;;;0.30;99.90;;;;;;5048697;28;20207;-75
2023/02/08 01:16:12;;;;;;;24.50;17.23;;;0.40;99.90;;;;;;5046420;28;20224;-74
2023/02/08 01:18:41;;;;;;;24.30;18.48;;;0.10;99.90;;;;;;5052163;28;20216;-73
2023/02/08 01:21:10;;;;;;;31.52;19.35;;;0.30;99.90;;;;;;5052709;28;20207;-73
2023/02/08 01:23:37;;;;;;;28.25;18.33;;;0.30;99.90;;;;;;5052778;28;20221;-73
2023/02/08 01:26:05;;;;;;;27.55;17.55;;;0.30;99.90;;;;;;5052250;28;20251;-72
2023/02/08 01:28:32;;;;;;;30.33;17.98;;;0.30;99.90;;;;;;5053032;28;20250;-74
2023/02/08 01:30:59;;;;;;;29.65;18.02;;;0.20;99.90;;;;;;5051440;28;20239;-73
2023/02/08 01:33:26;;;;;;;29.65;17.85;;;0.10;99.90;;;;;;5052298;28;20302;-72
2023/02/08 01:35:55;;;;;;;28.20;19.27;;;0.20;99.90;;;;;;5052583;28;20311;-73
2023/02/08 01:38:22;;;;;;;31.23;19.40;;;0.20;99.90;;;;;;5053298;28;20589;-73
2023/02/08 01:40:49;;;;;;;32.85;20.08;;;0.20;99.90;;;;;;5051586;28;20253;-73
2023/02/08 01:43:22;;;;;;;30.48;19.45;;;0.20;99.90;;;;;;5052456;28;20200;-76
2023/02/08 01:45:49;;;;;;;32.20;19.17;;;0.20;99.90;;;;;;5051714;28;20305;-73
2023/02/08 01:48:19;;;;;;;28.70;18.65;;;0.30;99.90;;;;;;5051761;28;20210;-74
2023/02/08 01:50:54;;;;;;;28.75;17.58;;;0.10;99.90;;;;;;5049077;28;20287;-74
2023/02/08 01:53:24;;;;;;;27.80;19.90;;;0.10;99.90;;;;;;5052231;28;20238;-73
2023/02/08 01:55:55;;;;;;;30.42;18.77;;;0.00;99.90;;;;;;5049436;28;20258;-75
2023/02/08 04:54:22;;;;;;;42.60;25.17;;;-0.80;99.90;;;;;;5032666;28;20193;-80
2023/02/08 06:55:34;;;;;;;64.05;32.67;;;-1.20;99.90;;;;;;5100731;28;20393;-80
2023/02/08 07:01:06;;;;;;;62.72;34.30;;;-1.30;99.90;;;;;;5078083;28;20185;-80
2023/02/08 07:03:33;;;;;;;73.70;34.90;;;-1.20;99.90;;;;;;5090176;28;20207;-80
2023/02/08 07:06:00;;;;;;;62.70;29.77;;;-1.10;99.90;;;;;;5089070;28;20272;-82
2023/02/08 07:08:27;;;;;;;66.28;33.90;;;-1.20;99.90;;;;;;5086015;28;20267;-81
2023/02/08 07:10:55;;;;;;;73.07;38.03;;;-1.20;99.90;;;;;;5081106;28;20473;-83
2023/02/08 07:13:22;;;;;;;67.72;35.20;;;-1.10;99.90;;;;;;5080546;28;20238;-81
2023/02/08 07:15:49;;;;;;;68.18;37.08;;;-1.20;99.90;;;;;;5103541;28;20230;-82
2023/02/08 07:18:16;;;;;;;71.18;35.13;;;-1.20;99.90;;;;;;5102196;28;20240;-80
2023/02/08 07:20:48;;;;;;;60.65;35.75;;;-1.10;99.90;;;;;;5103334;28;20217;-86
2023/02/08 07:23:22;;;;;;;76.82;36.67;;;-1.00;99.90;;;;;;5110735;28;20183;-90
2023/02/08 07:26:03;;;;;;;66.55;33.30;;;-1.20;99.90;;;;;;5096422;28;20265;-85
2023/02/08 07:28:30;;;;;;;71.22;34.35;;;-0.80;99.90;;;;;;5101473;22;20265;-73
2023/02/08 07:30:58;;;;;;;61.50;31.88;;;-0.40;99.90;;;;;;5067059;28;20231;-71
2023/02/08 07:33:26;;;;;;;55.50;33.55;;;0.00;99.90;;;;;;5063578;28;20266;-73
2023/02/08 07:35:53;;;;;;;50.65;29.88;;;0.70;99.90;;;;;;5063580;28;20301;-75
2023/02/08 07:38:20;;;;;;;62.42;32.20;;;1.30;99.90;;;;;;5067624;28;20904;-71
2023/02/08 07:40:47;;;;;;;57.35;30.77;;;1.90;99.90;;;;;;5062289;28;20298;-74
2023/02/08 07:43:15;;;;;;;56.08;30.33;;;2.30;99.90;;;;;;5067601;28;20231;-74
2023/02/08 07:45:42;;;;;;;49.08;31.45;;;2.60;99.90;;;;;;5065849;28;20223;-71
2023/02/08 07:48:09;;;;;;;62.83;35.15;;;3.00;99.90;;;;;;5074886;28;20211;-72
2023/02/08 07:50:36;;;;;;;57.70;30.67;;;3.00;99.90;;;;;;5070600;28;20206;-72
2023/02/08 07:53:03;;;;;;;58.42;32.72;;;2.70;99.90;;;;;;5071184;28;20660;-70
2023/02/08 07:55:30;;;;;;;54.22;28.85;;;3.00;99.90;;;;;;5065005;28;20305;-73
2023/02/08 08:04:11;;;;;;;48.42;27.75;;;4.40;99.90;;;;;;4994624;28;20208;-84
2023/02/08 08:06:39;;;;;;;49.17;28.02;;;4.90;99.90;;;;;;5003260;28;20261;-85
2023/02/08 08:09:06;;;;;;;50.90;28.88;;;5.40;99.90;;;;;;5082789;28;20195;-84
2023/02/08 08:11:32;;;;;;;46.58;29.00;;;5.90;99.90;;;;;;5076383;28;20223;-84
2023/02/08 08:13:59;;;;;;;43.58;27.27;;;6.30;99.40;;;;;;5090852;28;20186;-85
2023/02/08 08:16:26;;;;;;;41.78;26.38;;;6.70;98.50;;;;;;5081664;28;20235;-87
2023/02/08 08:18:53;;;;;;;55.58;28.75;;;7.50;95.60;;;;;;5072486;28;20218;-85
2023/02/08 08:21:21;;;;;;;48.33;28.75;;;7.70;93.90;;;;;;5073820;28;20207;-84
2023/02/08 08:23:48;;;;;;;46.05;29.85;;;8.00;93.10;;;;;;5070803;28;20239;-85
2023/02/08 08:26:18;;;;;;;52.67;31.02;;;8.40;92.00;;;;;;5071626;28;20200;-85
2023/02/08 08:28:46;;;;;;;43.55;27.52;;;8.40;91.90;;;;;;5068551;28;20267;-87
2023/02/08 08:31:14;;;;;;;45.28;28.73;;;8.50;91.00;;;;;;5072568;28;20215;-82
2023/02/08 08:33:41;;;;;;;54.88;30.02;;;9.00;90.90;;;;;;5067594;28;20242;-81
2023/02/08 08:36:09;;;;;;;47.35;28.58;;;9.60;89.30;;;;;;5069712;28;20289;-81
2023/02/08 08:38:39;;;;;;;47.70;29.95;;;9.40;88.40;;;;;;5069611;28;20221;-84
2023/02/08 08:41:10;;;;;;;51.55;30.75;;;8.90;88.80;;;;;;5069717;28;20672;-86
2023/02/08 08:43:37;;;;;;;46.72;29.50;;;9.00;88.60;;;;;;5069287;28;20289;-86
2023/02/08 08:46:06;;;;;;;54.47;31.45;;;8.90;89.40;;;;;;5079365;28;20506;-85
2023/02/08 08:48:33;;;;;;;42.47;29.40;;;8.30;89.60;;;;;;5073069;28;20678;-84
2023/02/08 08:51:00;;;;;;;44.65;29.55;;;8.10;90.50;;;;;;5073889;28;20283;-85
2023/02/08 08:53:27;;;;;;;49.72;27.80;;;8.10;90.90;;;;;;5076577;28;20227;-84
2023/02/08 08:55:55;;;;;;;47.30;26.45;;;8.50;90.70;;;;;;5068102;28;20253;-84
2023/02/08 08:58:22;;;;;;;52.90;28.60;;;8.60;90.00;;;;;;5067557;28;20243;-84
2023/02/08 09:00:49;;;;;;;39.33;25.75;;;8.80;90.00;;;;;;5068345;28;20276;-83
2023/02/08 09:03:16;;;;;;;40.42;27.20;;;9.60;87.80;;;;;;5072827;28;20234;-84
2023/02/08 09:05:43;;;;;;;43.60;27.70;;;10.00;84.70;;;;;;5072191;28;20226;-85
2023/02/08 09:08:09;;;;;;;49.38;25.83;;;10.40;82.90;;;;;;5070448;28;20657;-82
2023/02/08 09:10:36;;;;;;;42.53;28.45;;;10.70;81.80;;;;;;5069127;28;20282;-84
2023/02/08 09:13:04;;;;;;;36.30;25.20;;;10.40;81.20;;;;;;5069998;28;20279;-84
2023/02/08 09:15:32;;;;;;;48.00;28.08;;;10.60;80.90;;;;;;5072084;28;20270;-84
2023/02/08 09:17:58;;;;;;;44.15;25.48;;;10.90;80.50;;;;;;5071612;28;20199;-84
2023/02/08 09:20:25;;;;;;;39.67;25.20;;;11.00;79.20;;;;;;5069964;28;20207;-82
2023/02/08 09:22:53;;;;;;;36.28;25.58;;;10.80;80.40;;;;;;5070861;28;20198;-83
2023/02/08 09:25:20;;;;;;;42.95;27.02;;;10.80;79.80;;;;;;5077430;28;20230;-83
2023/02/08 09:27:47;;;;;;;46.63;27.42;;;10.80;80.30;;;;;;5077654;28;20217;-83
2023/02/08 09:30:15;;;;;;;46.15;26.65;;;11.00;80.30;;;;;;5077210;28;20222;-83
2023/02/08 09:32:43;;;;;;;47.08;26.63;;;11.10;79.70;;;;;;5069222;28;20258;-83
2023/02/08 09:35:12;;;;;;;44.95;25.77;;;11.40;78.50;;;;;;5077458;28;20207;-83
2023/02/08 09:37:39;;;;;;;40.10;26.83;;;11.70;78.20;;;;;;5077019;28;20200;-83
2023/02/08 09:40:06;;;;;;;38.40;25.83;;;12.10;77.20;;;;;;5089427;28;20190;-84
2023/02/08 09:42:40;;;;;;;42.55;24.65;;;12.10;76.10;;;;;;5078187;28;20195;-83
2023/02/08 09:45:35;;;;;;;43.97;26.27;;;12.10;75.70;;;;;;5071985;28;20203;-81
2023/02/08 09:48:13;;;;;;;43.67;26.55;;;12.30;74.40;;;;;;5074617;28;20197;-83
2023/02/08 09:50:44;;;;;;;46.40;28.13;;;12.50;74.20;;;;;;5076868;28;20206;-83
2023/02/08 09:53:17;;;;;;;41.25;25.95;;;12.60;73.50;;;;;;5077562;28;20258;-83
2023/02/08 09:55:46;;;;;;;38.88;24.30;;;12.20;74.20;;;;;;5075361;28;20246;-83
2023/02/08 09:58:21;;;;;;;37.28;22.85;;;12.20;74.30;;;;;;5077676;28;20206;-81
2023/02/08 10:00:53;;;;;;;39.45;25.50;;;12.70;73.70;;;;;;5075882;28;20221;-80
2023/02/08 10:03:29;;;;;;;40.85;25.67;;;12.80;73.10;;;;;;5076409;28;20180;-81
2023/02/08 10:05:57;;;;;;;39.22;25.05;;;12.70;72.50;;;;;;5075964;28;20232;-81
2023/02/08 10:08:24;;;;;;;42.95;23.52;;;13.30;72.40;;;;;;5076892;28;20180;-81
2023/02/08 10:10:54;;;;;;;32.55;24.13;;;13.60;71.70;;;;;;5078164;28;20277;-81
2023/02/08 10:13:49;;;;;;;47.03;27.27;;;13.50;69.80;;;;;;5067779;28;20207;-81
2023/02/08 10:16:36;;;;;;;40.03;25.70;;;13.20;71.30;;;;;;5073159;28;20300;-84
2023/02/08 10:19:14;;;;;;;36.42;22.35;;;13.30;70.90;;;;;;5070443;28;20211;-84
2023/02/08 10:21:55;;;;;;;34.17;23.38;;;12.90;70.30;;;;;;5071846;28;20274;-87
2023/02/08 10:24:37;;;;;;;36.92;23.67;;;13.00;70.90;;;;;;5068159;28;20258;-86
2023/02/08 10:27:14;;;;;;;43.45;23.92;;;12.50;71.10;;;;;;5073579;28;20218;-85
2023/02/08 10:30:14;;;;;;;38.92;24.35;;;12.30;72.30;;;;;;5068705;28;20233;-84
2023/02/08 10:32:54;;;;;;;37.20;23.08;;;12.00;72.60;;;;;;5061732;28;20239;-86
2023/02/08 10:38:32;;;;;;;39.90;26.27;;;12.10;73.00;;;;;;5063301;28;20199;-87
2023/02/08 10:48:05;;;;;;;34.90;24.70;;;11.80;74.40;;;;;;5082885;28;20193;-86
2023/02/08 10:50:55;;;;;;;33.30;23.77;;;11.40;74.70;;;;;;5080433;28;20216;-87
2023/02/08 10:56:34;;;;;;;40.42;24.35;;;10.30;76.40;;;;;;5060316;28;20288;-70
2023/02/08 10:59:10;;;;;;;46.38;25.85;;;9.30;80.60;;;;;;5049380;28;20200;-71
2023/02/08 11:01:37;;;;;;;34.58;23.75;;;8.90;81.90;;;;;;5061496;28;20195;-71
2023/02/08 11:04:08;;;;;;;35.40;23.88;;;8.60;82.60;;;;;;5065461;28;20294;-71
2023/02/08 11:06:36;;;;;;;37.72;24.00;;;8.10;83.50;;;;;;5065713;28;20224;-71
2023/02/08 11:09:05;;;;;;;35.17;22.52;;;7.70;84.90;;;;;;5062868;28;20196;-72
2023/02/08 11:11:36;;;;;;;35.47;22.20;;;7.50;85.90;;;;;;5047336;28;20238;-71
2023/02/08 11:14:09;;;;;;;47.00;23.98;;;7.30;86.90;;;;;;5061417;28;20197;-72
2023/02/08 11:16:37;;;;;;;34.70;20.60;;;7.20;88.10;;;;;;5045153;28;20246;-71
2023/02/08 11:19:06;;;;;;;43.60;24.70;;;7.20;89.10;;;;;;5051900;28;20679;-72
2023/02/08 11:21:36;;;;;;;38.88;25.40;;;7.30;89.00;;;;;;5051896;28;20287;-74
2023/02/08 11:24:26;;;;;;;38.63;21.92;;;7.20;88.60;;;;;;5058858;28;20281;-72
2023/02/08 11:26:55;;;;;;;42.75;24.00;;;7.20;88.80;;;;;;5055097;28;20233;-72
2023/02/08 11:29:24;;;;;;;40.10;23.50;;;7.20;89.20;;;;;;5050195;28;20628;-72
2023/02/08 11:31:59;;;;;;;39.50;22.25;;;7.20;89.30;;;;;;5044614;28;20235;-73
2023/02/08 11:34:31;;;;;;;36.85;21.20;;;7.40;89.60;;;;;;5062476;28;20203;-70
2023/02/08 11:37:01;;;;;;;35.38;23.35;;;7.20;88.50;;;;;;5052453;28;20703;-69
2023/02/08 11:39:40;;;;;;;39.47;22.58;;;7.10;89.40;;;;;;5056155;28;20202;-71
2023/02/08 11:42:07;;;;;;;37.47;21.15;;;7.00;89.70;;;;;;5059908;28;20205;-75
2023/02/08 11:44:41;;;;;;;32.00;20.98;;;7.00;90.00;;;;;;5062833;28;20256;-74
2023/02/08 11:47:11;;;;;;;37.42;21.17;;;6.70;90.20;;;;;;5058811;28;20222;-73
2023/02/08 11:49:41;;;;;;;39.90;21.95;;;6.80;90.40;;;;;;5050482;28;20213;-71
2023/02/08 11:52:20;;;;;;;35.17;22.08;;;6.70;90.30;;;;;;5053811;28;20765;-71
2023/02/08 11:54:48;;;;;;;40.75;21.67;;;6.70;90.30;;;;;;5044834;28;20215;-72
2023/02/08 11:57:18;;;;;;;38.00;19.90;;;6.70;90.20;;;;;;5060917;28;20203;-74
2023/02/08 11:59:46;;;;;;;37.58;21.98;;;6.50;90.60;;;;;;5065672;28;20300;-72
2023/02/08 12:02:34;;;;;;;36.22;20.85;;;6.60;91.10;;;;;;5063964;28;20229;-74
2023/02/08 12:05:04;;;;;;;33.58;19.90;;;6.60;90.90;;;;;;5050497;28;20210;-74
2023/02/08 12:07:56;;;;;;;33.30;20.45;;;6.70;90.50;;;;;;5057660;28;20258;-73
2023/02/08 12:10:54;;;;;;;31.38;18.50;;;6.70;90.80;;;;;;5062738;28;20287;-72
2023/02/08 12:13:49;;;;;;;38.05;20.45;;;6.60;90.80;;;;;;5055830;28;20217;-72
2023/02/08 12:16:52;;;;;;;36.05;20.00;;;6.70;91.10;;;;;;5055451;28;20218;-75
2023/02/08 12:19:52;;;;;;;34.85;20.15;;;6.70;91.30;;;;;;5053132;28;20316;-71
2023/02/08 12:22:25;;;;;;;33.22;20.80;;;6.50;91.20;;;;;;5048130;28;20290;-72
2023/02/08 12:25:03;;;;;;;32.15;19.60;;;6.50;91.60;;;;;;5066011;28;20249;-73
2023/02/08 12:27:41;;;;;;;34.28;21.48;;;6.50;91.70;;;;;;5071492;28;20244;-74
2023/02/08 12:30:20;;;;;;;34.95;20.30;;;6.50;91.70;;;;;;5051974;28;20339;-71
2023/02/08 12:33:17;;;;;;;32.45;20.13;;;6.40;91.90;;;;;;5053795;28;20237;-72
2023/02/08 12:36:05;;;;;;;35.47;21.70;;;6.50;92.00;;;;;;5046794;28;20293;-73
2023/02/08 12:41:46;;;;;;;33.50;19.48;;;6.40;92.20;;;;;;5053336;28;20238;-72
2023/02/08 12:44:26;;;;;;;35.63;18.95;;;6.40;92.50;;;;;;5051004;28;20238;-72
2023/02/08 12:47:03;;;;;;;30.50;20.45;;;6.30;92.40;;;;;;5047115;28;20272;-72
2023/02/08 12:49:52;;;;;;;32.60;20.70;;;6.40;92.50;;;;;;5051872;28;20237;-74
2023/02/08 12:52:29;;;;;;;32.67;19.15;;;6.30;92.70;;;;;;5048932;28;20692;-74
2023/02/08 12:55:03;;;;;;;32.13;18.85;;;6.30;92.80;;;;;;5059825;28;20243;-74
2023/02/08 12:57:31;;;;;;;30.98;18.80;;;6.30;92.70;;;;;;5068525;28;20213;-73
2023/02/08 13:00:02;;;;;;;32.88;19.55;;;6.40;92.70;;;;;;5061004;28;20198;-72
2023/02/08 13:02:34;;;;;;;33.65;18.65;;;6.40;92.60;;;;;;5065127;28;20218;-75
2023/02/08 13:05:04;;;;;;;33.70;17.75;;;6.40;92.50;;;;;;5055785;28;20208;-74
2023/02/08 13:07:35;;;;;;;33.53;19.63;;;6.40;92.50;;;;;;5063414;28;20227;-74
2023/02/08 13:10:11;;;;;;;28.67;17.90;;;6.40;92.60;;;;;;5060051;28;20231;-71
2023/02/08 13:12:42;;;;;;;30.92;18.58;;;6.50;92.30;;;;;;5052956;28;20620;-73
2023/02/08 13:15:19;;;;;;;26.80;16.88;;;6.50;92.00;;;;;;5049486;28;20257;-74
2023/02/08 13:17:51;;;;;;;25.17;17.20;;;6.50;92.00;;;;;;5054680;28;20256;-74
2023/02/08 13:20:28;;;;;;;30.55;15.77;;;6.50;92.00;;;;;;5055076;28;20624;-72
2023/02/08 13:23:00;;;;;;;27.40;16.30;;;6.50;92.30;;;;;;5058979;28;20203;-72
2023/02/08 13:25:32;;;;;;;34.65;19.42;;;6.60;92.20;;;;;;5068040;28;20225;-71
2023/02/08 13:28:04;;;;;;;33.20;19.05;;;6.50;92.30;;;;;;5063056;28;20237;-71
2023/02/08 13:30:33;;;;;;;33.45;18.05;;;6.60;92.60;;;;;;5058548;28;20234;-74
2023/02/08 13:33:11;;;;;;;28.50;17.25;;;6.70;92.60;;;;;;5058317;28;20202;-73
2023/02/08 13:35:39;;;;;;;25.95;16.08;;;6.70;92.30;;;;;;5056358;28;20330;-72
2023/02/08 13:38:25;;;;;;;27.95;17.35;;;6.80;92.60;;;;;;5064262;28;20316;-73
2023/02/08 13:41:06;;;;;;;30.75;17.02;;;6.80;92.40;;;;;;5057446;28;20252;-70
2023/02/08 13:43:38;;;;;;;25.70;14.98;;;6.80;92.70;;;;;;5059041;28;20210;-73
2023/02/08 13:46:06;;;;;;;26.77;15.77;;;6.80;92.70;;;;;;5056752;28;20223;-72
2023/02/08 13:48:45;;;;;;;26.25;15.98;;;6.90;92.60;;;;;;5064779;28;20230;-74
2023/02/08 13:52:02;;;;;;;27.25;15.05;;;6.80;92.50;;;;;;5054299;28;20210;-74
2023/02/08 13:54:29;;;;;;;22.85;13.93;;;6.90;91.90;;;;;;4958685;28;20225;-72
2023/02/08 13:56:57;;;;;;;30.58;15.98;;;6.90;91.20;;;;;;5046460;28;20219;-73
2023/02/08 13:59:36;;;;;;;29.38;16.63;;;7.00;91.20;;;;;;5058297;28;20237;-74
2023/02/08 14:02:28;;;;;;;25.67;14.82;;;6.90;91.30;;;;;;5054531;28;20753;-73
2023/02/08 14:05:29;;;;;;;30.70;14.95;;;7.00;91.10;;;;;;5041499;28;20260;-73
2023/02/08 14:07:59;;;;;;;35.60;15.18;;;7.00;91.20;;;;;;5039224;28;20240;-71
2023/02/08 14:10:36;;;;;;;26.50;17.92;;;6.90;91.30;;;;;;5062322;28;20771;-70
2023/02/08 14:13:16;;;;;;;21.05;15.20;;;7.10;91.40;;;;;;5067171;28;20691;-71
2023/02/08 14:15:44;;;;;;;28.48;16.70;;;7.00;91.60;;;;;;5045819;28;20283;-70
2023/02/08 14:18:24;;;;;;;22.65;15.02;;;6.90;91.50;;;;;;5062856;28;20278;-72
2023/02/08 14:21:22;;;;;;;25.55;15.07;;;6.80;91.90;;;;;;5052553;28;20606;-71
2023/02/08 14:24:00;;;;;;;31.90;16.20;;;6.90;92.10;;;;;;5054470;28;20274;-74
2023/02/08 14:26:28;;;;;;;36.90;18.42;;;7.00;92.10;;;;;;5042954;28;20231;-70
2023/02/08 14:28:59;;;;;;;24.55;14.93;;;6.90;92.10;;;;;;5047720;28;20226;-74
2023/02/08 14:31:41;;;;;;;25.58;14.20;;;6.90;91.90;;;;;;5060624;28;20217;-73
2023/02/08 14:34:23;;;;;;;28.33;15.77;;;6.70;91.70;;;;;;5054837;28;20202;-72
2023/02/08 14:37:00;;;;;;;29.67;16.08;;;6.60;91.80;;;;;;5051991;28;20222;-71
2023/02/08 14:39:28;;;;;;;26.02;16.63;;;6.60;91.70;;;;;;5046669;28;20566;-74
2023/02/08 14:41:59;;;;;;;31.10;17.83;;;6.50;91.80;;;;;;5061472;28;20232;-71
2023/02/08 14:45:05;;;;;;;22.52;14.95;;;6.40;92.20;;;;;;5063077;28;20244;-73
2023/02/08 14:48:08;;;;;;;26.90;15.60;;;6.40;92.20;;;;;;5047983;28;20288;-72
2023/02/08 14:50:43;;;;;;;26.77;14.75;;;6.40;92.00;;;;;;5056308;28;20245;-73
2023/02/08 14:53:24;;;;;;;21.88;13.70;;;6.30;92.00;;;;;;5054306;28;20213;-73
2023/02/08 14:55:54;;;;;;;28.75;15.80;;;6.30;91.80;;;;;;5051526;28;20580;-74
2023/02/08 14:58:29;;;;;;;25.30;16.52;;;6.30;92.00;;;;;;5062032;28;20623;-70
2023/02/08 15:01:01;;;;;;;23.90;14.65;;;6.30;91.60;;;;;;5051112;28;20252;-73
2023/02/08 15:03:31;;;;;;;23.52;16.08;;;6.30;92.00;;;;;;5052485;28;20256;-70
2023/02/08 15:06:16;;;;;;;24.08;14.63;;;6.20;92.20;;;;;;5045934;28;20233;-73
2023/02/08 15:08:48;;;;;;;33.25;16.92;;;6.20;92.20;;;;;;5047276;28;20206;-71
2023/02/08 15:11:25;;;;;;;24.08;13.73;;;6.20;92.20;;;;;;5059015;28;20292;-71
2023/02/08 15:13:54;;;;;;;22.58;14.93;;;6.10;92.10;;;;;;5054456;28;20312;-73
2023/02/08 15:16:27;;;;;;;25.00;15.38;;;6.20;92.20;;;;;;5064765;28;20319;-72
2023/02/08 15:18:54;;;;;;;26.40;16.95;;;6.20;92.50;;;;;;5044819;28;20227;-73
2023/02/08 15:21:24;;;;;;;29.80;18.08;;;6.00;92.60;;;;;;5064104;28;20214;-72
2023/02/08 15:24:02;;;;;;;30.55;17.98;;;6.00;92.80;;;;;;5061164;28;20214;-72
2023/02/08 15:26:29;;;;;;;27.80;17.08;;;6.00;92.50;;;;;;5055398;28;20241;-71
2023/02/08 15:28:56;;;;;;;28.42;16.88;;;5.90;92.60;;;;;;5061473;28;20229;-72
2023/02/08 15:31:31;;;;;;;28.38;18.48;;;5.90;93.20;;;;;;5058700;28;20284;-71
2023/02/08 15:33:59;;;;;;;25.05;17.50;;;5.90;93.70;;;;;;5066218;28;20590;-71
2023/02/08 15:36:29;;;;;;;29.63;18.50;;;5.90;94.20;;;;;;5058621;28;20268;-73
2023/02/08 15:38:58;;;;;;;29.88;19.65;;;5.90;94.30;;;;;;5048002;28;20291;-71
2023/02/08 15:41:28;;;;;;;34.55;19.17;;;5.80;94.50;;;;;;5057928;28;20232;-72
2023/02/08 15:44:17;;;;;;;34.97;19.92;;;5.80;94.80;;;;;;5058434;28;20571;-72
2023/02/08 15:46:46;;;;;;;34.30;17.45;;;5.70;95.10;;;;;;5058550;28;20233;-73
2023/02/08 15:49:16;;;;;;;36.92;19.88;;;5.70;95.00;;;;;;5060729;28;20245;-72
2023/02/08 15:51:50;;;;;;;34.55;18.13;;;5.70;95.10;;;;;;5051105;28;20219;-71
2023/02/08 15:54:18;;;;;;;39.22;21.45;;;5.60;95.40;;;;;;5063590;28;20211;-72
2023/02/08 15:56:50;;;;;;;34.20;20.65;;;5.50;95.70;;;;;;5057990;28;20264;-72
2023/02/08 15:59:22;;;;;;;38.45;19.98;;;5.60;96.00;;;;;;5047045;28;20265;-74
2023/02/08 16:01:51;;;;;;;26.50;18.17;;;5.50;95.90;;;;;;5052554;28;20543;-71
2023/02/08 16:04:18;;;;;;;35.00;20.75;;;5.40;95.60;;;;;;5062119;28;20203;-71
2023/02/08 16:06:50;;;;;;;35.00;18.50;;;5.40;95.70;;;;;;5058989;28;20227;-71
2023/02/08 16:09:19;;;;;;;29.45;17.77;;;5.30;95.80;;;;;;5060023;28;20289;-73
2023/02/08 16:11:49;;;;;;;39.83;19.30;;;5.20;95.80;;;;;;5063256;28;20196;-72
2023/02/08 16:14:18;;;;;;;39.58;20.60;;;5.10;96.00;;;;;;5059941;28;20208;-71
2023/02/08 16:16:47;;;;;;;38.65;20.13;;;5.10;96.20;;;;;;5052046;28;20232;-76
2023/02/08 16:19:25;;;;;;;34.75;20.15;;;5.10;96.30;;;;;;5062693;28;20204;-73
2023/02/08 16:21:53;;;;;;;32.10;20.70;;;5.10;96.20;;;;;;5058040;28;20223;-74
2023/02/08 16:24:23;;;;;;;36.78;22.35;;;5.00;96.20;;;;;;5062704;28;20302;-73
2023/02/08 16:26:57;;;;;;;32.22;19.67;;;5.00;96.30;;;;;;5068329;28;20642;-74
2023/02/08 16:29:27;;;;;;;30.15;17.83;;;4.90;96.30;;;;;;5056124;28;20224;-74
2023/02/08 16:32:02;;;;;;;39.63;19.85;;;4.90;96.50;;;;;;5060577;28;20565;-73
2023/02/08 16:34:33;;;;;;;31.77;18.52;;;4.80;96.60;;;;;;5064512;28;20256;-73
2023/02/08 16:37:00;;;;;;;33.03;18.38;;;4.80;96.70;;;;;;5057006;28;20679;-72
2023/02/08 16:39:52;;;;;;;30.60;17.15;;;4.80;96.80;;;;;;5064783;28;20207;-74
2023/02/08 16:42:25;;;;;;;32.45;18.40;;;4.70;96.80;;;;;;5049973;28;20218;-73
2023/02/08 16:45:02;;;;;;;27.00;16.75;;;4.70;97.00;;;;;;5065311;28;20235;-74
2023/02/08 16:47:36;;;;;;;33.80;17.40;;;4.60;97.10;;;;;;5053681;28;20196;-73
2023/02/08 16:50:05;;;;;;;30.27;17.63;;;4.60;97.10;;;;;;5066307;28;20218;-73
2023/02/08 16:52:33;;;;;;;30.00;17.10;;;4.60;97.10;;;;;;5056236;28;20654;-73
2023/02/08 16:55:01;;;;;;;34.20;17.85;;;4.50;97.10;;;;;;5059771;28;20598;-74
2023/02/08 16:57:39;;;;;;;26.20;15.52;;;4.50;97.30;;;;;;5066091;28;20195;-73
2023/02/08 17:00:14;;;;;;;33.08;18.92;;;4.50;97.30;;;;;;5053066;28;20594;-74
2023/02/08 17:02:41;;;;;;;35.15;18.20;;;4.40;97.20;;;;;;5067033;28;20275;-72
2023/02/08 17:05:10;;;;;;;32.45;17.40;;;4.40;97.30;;;;;;5054007;28;20558;-72
2023/02/08 17:07:38;;;;;;;26.15;15.98;;;4.40;97.00;;;;;;5061853;28;20238;-71
2023/02/08 17:10:06;;;;;;;39.08;14.93;;;4.30;96.80;;;;;;5052234;28;20221;-73
2023/02/08 17:12:33;;;;;;;25.92;14.88;;;4.30;96.60;;;;;;5061645;28;20224;-71
2023/02/08 17:15:00;;;;;;;30.25;15.27;;;4.30;96.30;;;;;;5052195;28;20269;-74
2023/02/08 17:17:28;;;;;;;24.50;14.32;;;4.30;96.20;;;;;;5060913;28;20199;-73
2023/02/08 17:19:55;;;;;;;32.83;13.88;;;4.20;96.10;;;;;;5053677;28;20231;-72
2023/02/08 17:22:24;;;;;;;23.23;13.52;;;4.30;95.90;;;;;;5053256;28;20689;-72
2023/02/08 17:24:51;;;;;;;22.92;12.45;;;4.20;96.30;;;;;;5053926;28;20199;-74
2023/02/08 17:27:18;;;;;;;21.02;12.20;;;4.20;95.90;;;;;;5054096;28;20228;-74
2023/02/08 17:29:45;;;;;;;22.98;12.48;;;4.20;95.40;;;;;;5055769;28;20283;-73
2023/02/08 17:32:12;;;;;;;22.40;12.30;;;4.20;95.20;;;;;;5053148;28;20683;-72
2023/02/08 17:34:39;;;;;;;21.40;12.00;;;4.20;95.00;;;;;;5050017;28;20658;-74
2023/02/08 17:37:07;;;;;;;18.20;12.15;;;4.20;94.60;;;;;;5056337;28;20223;-73
2023/02/08 17:39:36;;;;;;;21.85;13.02;;;4.10;94.50;;;;;;5059515;28;20570;-73
2023/02/08 17:42:02;;;;;;;22.17;11.65;;;4.10;94.40;;;;;;5053252;28;20204;-74
2023/02/08 17:44:29;;;;;;;18.42;11.70;;;4.10;94.60;;;;;;5054062;28;20282;-72
2023/02/08 17:46:57;;;;;;;19.17;12.50;;;4.00;94.30;;;;;;5065978;28;20234;-73
2023/02/08 17:49:24;;;;;;;24.80;11.85;;;4.10;94.20;;;;;;5058279;28;20210;-74
2023/02/08 17:51:51;;;;;;;21.30;11.85;;;4.00;93.90;;;;;;5049559;28;20213;-73
2023/02/08 17:54:19;;;;;;;25.52;12.93;;;4.00;93.70;;;;;;5055647;28;20295;-72
2023/02/08 17:56:48;;;;;;;21.25;12.43;;;3.90;93.50;;;;;;5050807;28;20232;-72
2023/02/08 17:59:14;;;;;;;17.52;12.50;;;3.90;93.20;;;;;;5049928;28;20628;-73
2023/02/08 18:01:43;;;;;;;22.08;12.02;;;3.90;92.90;;;;;;5054370;28;20203;-72
2023/02/08 18:04:12;;;;;;;18.73;11.38;;;3.90;92.80;;;;;;5053696;28;20228;-74
2023/02/08 18:06:39;;;;;;;20.13;11.88;;;3.90;92.70;;;;;;5056251;28;20581;-74
2023/02/08 18:09:06;;;;;;;20.55;11.95;;;3.80;92.80;;;;;;5060621;28;20256;-71
2023/02/08 18:11:33;;;;;;;14.80;9.23;;;3.80;92.80;;;;;;5047797;28;20290;-74
2023/02/08 18:14:02;;;;;;;25.88;12.95;;;3.70;92.70;;;;;;5044920;28;20598;-75
2023/02/08 18:16:30;;;;;;;25.90;12.98;;;3.80;92.70;;;;;;5047149;28;20236;-73
2023/02/08 18:19:00;;;;;;;21.15;11.13;;;3.70;92.90;;;;;;5058775;28;20204;-75
2023/02/08 18:21:31;;;;;;;24.17;13.35;;;3.60;93.10;;;;;;5055830;28;20622;-74